createdAt,value
2022-12-01T00:01:22.301Z,101315.59
2022-12-01T00:03:49.692Z,101315.59
2022-12-01T00:06:20.198Z,101323.66
2022-12-01T00:09:08.104Z,101317.44
2022-12-01T00:11:37.192Z,101319.28
2022-12-01T00:14:05.101Z,101319.28
2022-12-01T00:16:33.097Z,101325.50
2022-12-01T00:19:00.535Z,101316.59
2022-12-01T00:21:28.389Z,101318.41
2022-12-01T00:23:57.971Z,101317.56
2022-12-01T00:26:27.484Z,101306.94
2022-12-01T00:28:59.595Z,101320.25
2022-12-01T00:31:27.605Z,101320.25
2022-12-01T00:33:55.424Z,101315.84
2022-12-01T00:36:23.249Z,101320.34
2022-12-01T00:38:57.360Z,101317.66
2022-12-01T00:41:25.630Z,101319.38
2022-12-01T00:43:53.057Z,101319.50
2022-12-01T00:46:20.670Z,101319.50
2022-12-01T00:48:48.279Z,101322.19
2022-12-01T00:51:15.539Z,101322.19
2022-12-01T00:53:42.880Z,101321.31
2022-12-01T00:56:10.293Z,101327.53
2022-12-01T00:58:37.546Z,101328.53
2022-12-01T01:01:05.135Z,101328.53
2022-12-01T01:03:33.847Z,101327.69
2022-12-01T01:06:10.345Z,101332.06
2022-12-01T01:08:37.728Z,101332.19
2022-12-01T01:11:05.574Z,101334.88
2022-12-01T01:13:33.279Z,101337.56
2022-12-01T01:16:02.908Z,101336.56
2022-12-01T01:18:30.713Z,101334.88
2022-12-01T01:20:59.922Z,101333.13
2022-12-01T01:23:27.318Z,101335.81
2022-12-01T01:25:54.710Z,101335.81
2022-12-01T01:28:22.004Z,101338.50
2022-12-01T01:30:49.369Z,101335.81
2022-12-01T01:33:16.768Z,101336.81
2022-12-01T01:35:44.061Z,101329.59
2022-12-01T01:38:11.543Z,101335.81
2022-12-01T01:40:46.448Z,101335.81
2022-12-01T01:43:16.491Z,101326.91
2022-12-01T01:45:44.107Z,101320.69
2022-12-01T01:48:13.511Z,101327.78
2022-12-01T01:50:41.073Z,101326.06
2022-12-01T01:53:13.825Z,101323.38
2022-12-01T01:55:41.067Z,101319.84
2022-12-01T01:58:10.850Z,101322.53
2022-12-01T02:00:43.903Z,101322.53
2022-12-01T02:03:14.899Z,101309.13
2022-12-01T02:05:44.930Z,101318.03
2022-12-01T02:08:12.524Z,101319.00
2022-12-01T02:11:04.615Z,101317.16
2022-12-01T02:13:59.472Z,101315.47
2022-12-01T02:16:26.812Z,101318.03
2022-12-01T02:18:54.058Z,101314.47
2022-12-01T02:21:42.426Z,101319.00
2022-12-01T02:24:56.921Z,101310.94
2022-12-01T02:27:38.201Z,101306.53
2022-12-01T02:30:10.170Z,101305.69
2022-12-01T02:32:48.856Z,101302.16
2022-12-01T02:35:28.559Z,101303.00
2022-12-01T02:38:16.982Z,101302.16
2022-12-01T02:40:54.359Z,101302.16
2022-12-01T02:43:50.362Z,101303.13
2022-12-01T02:46:20.642Z,101300.44
2022-12-01T02:48:51.802Z,101302.38
2022-12-01T02:51:31.983Z,101303.13
2022-12-01T02:54:01.783Z,101305.94
2022-12-01T02:56:29.499Z,101305.94
2022-12-01T02:58:56.876Z,101306.78
2022-12-01T03:01:38.049Z,101306.66
2022-12-01T03:04:32.554Z,101307.75
2022-12-01T03:07:19.188Z,101297.91
2022-12-01T03:10:27.286Z,101300.56
2022-12-01T03:13:00.494Z,101300.56
2022-12-01T03:15:32.879Z,101299.69
2022-12-01T03:18:06.955Z,101297.00
2022-12-01T03:20:52.070Z,101300.56
2022-12-01T03:23:24.206Z,101285.44
2022-12-01T03:25:56.722Z,101301.53
2022-12-01T03:28:30.936Z,101297.00
2022-12-01T03:31:03.650Z,101296.16
2022-12-01T03:33:43.554Z,101298.00
2022-12-01T03:36:19.721Z,101294.31
2022-12-01T03:38:51.561Z,101290.94
2022-12-01T03:41:24.446Z,101289.94
2022-12-01T03:44:07.853Z,101303.34
2022-12-01T03:46:41.006Z,101298.97
2022-12-01T03:49:09.858Z,101299.81
2022-12-01T03:51:56.420Z,101301.53
2022-12-01T03:54:33.927Z,101298.13
2022-12-01T03:57:06.379Z,101298.97
2022-12-01T03:59:37.060Z,101297.28
2022-12-01T04:02:07.263Z,101293.59
2022-12-01T04:04:34.815Z,101297.28
2022-12-01T04:07:02.166Z,101298.97
2022-12-01T04:09:29.434Z,101296.41
2022-12-01T04:12:15.239Z,101290.16
2022-12-01T04:14:42.586Z,101296.41
2022-12-01T04:17:09.756Z,101292.84
2022-12-01T04:19:36.977Z,101290.16
2022-12-01T04:22:04.288Z,101288.38
2022-12-01T04:24:31.533Z,101283.09
2022-12-01T04:26:58.809Z,101290.16
2022-12-01T04:29:26.081Z,101288.38
2022-12-01T04:31:53.508Z,101292.00
2022-12-01T04:34:21.057Z,101293.84
2022-12-01T04:36:48.386Z,101297.38
2022-12-01T04:39:15.752Z,101299.19
2022-12-01T04:41:43.105Z,101300.91
2022-12-01T04:44:11.163Z,101296.50
2022-12-01T04:46:38.528Z,101300.91
2022-12-01T04:49:06.213Z,101302.72
2022-12-01T04:51:33.588Z,101304.47
2022-12-01T04:54:02.591Z,101305.41
2022-12-01T04:56:29.895Z,101300.06
2022-12-01T04:58:59.004Z,101295.53
2022-12-01T05:01:26.671Z,101302.72
2022-12-01T05:03:54.118Z,101302.72
2022-12-01T05:06:24.617Z,101306.25
2022-12-01T05:08:59.127Z,101306.25
2022-12-01T05:11:28.565Z,101309.84
2022-12-01T05:13:55.961Z,101306.25
2022-12-01T05:16:26.314Z,101300.06
2022-12-01T05:19:14.669Z,101308.00
2022-12-01T05:21:43.196Z,101312.59
2022-12-01T05:24:12.204Z,101305.41
2022-12-01T05:26:40.377Z,101301.88
2022-12-01T05:29:08.360Z,101309.94
2022-12-01T05:31:36.103Z,101314.31
2022-12-01T05:34:03.645Z,101312.59
2022-12-01T05:36:31.545Z,101312.59
2022-12-01T05:38:58.837Z,101309.94
2022-12-01T05:41:26.143Z,101313.47
2022-12-01T05:43:53.466Z,101313.47
2022-12-01T05:46:20.821Z,101317.13
2022-12-01T05:48:48.204Z,101310.91
2022-12-01T05:51:16.923Z,101314.44
2022-12-01T05:53:45.255Z,101314.44
2022-12-01T05:56:12.865Z,101309.06
2022-12-01T05:58:40.216Z,101308.22
2022-12-01T06:01:07.664Z,101308.22
2022-12-01T06:03:35.078Z,101300.19
2022-12-01T06:06:02.810Z,101308.22
2022-12-01T06:08:30.084Z,101298.34
2022-12-01T06:10:57.555Z,101292.13
2022-12-01T06:13:24.837Z,101303.72
2022-12-01T06:15:59.139Z,101299.31
2022-12-01T06:18:37.759Z,101309.06
2022-12-01T06:21:06.660Z,101304.69
2022-12-01T06:23:34.876Z,101306.41
2022-12-01T06:26:02.135Z,101321.78
2022-12-01T06:28:29.413Z,101312.75
2022-12-01T06:31:01.301Z,101311.88
2022-12-01T06:33:31.532Z,101313.72
2022-12-01T06:36:00.009Z,101318.09
2022-12-01T06:38:30.835Z,101322.63
2022-12-01T06:40:58.199Z,101324.44
2022-12-01T06:43:25.468Z,101314.56
2022-12-01T06:45:57.760Z,101318.97
2022-12-01T06:48:28.428Z,101319.94
2022-12-01T06:50:59.758Z,101325.41
2022-12-01T06:53:28.452Z,101324.44
2022-12-01T06:56:04.411Z,101331.63
2022-12-01T06:58:32.594Z,101334.28
2022-12-01T07:01:00.421Z,101329.81
2022-12-01T07:03:27.806Z,101335.28
2022-12-01T07:05:59.882Z,101335.28
2022-12-01T07:08:28.669Z,101346.75
2022-12-01T07:11:00.972Z,101346.00
2022-12-01T07:13:33.453Z,101345.03
2022-12-01T07:16:05.146Z,101341.50
2022-12-01T07:18:33.290Z,101352.13
2022-12-01T07:21:01.739Z,101348.59
2022-12-01T07:23:29.411Z,101354.81
2022-12-01T07:26:06.797Z,101342.34
2022-12-01T07:28:34.287Z,101357.50
2022-12-01T07:31:06.581Z,101356.22
2022-12-01T07:33:34.306Z,101357.91
2022-12-01T07:36:02.253Z,101362.72
2022-12-01T07:38:33.263Z,101355.41
2022-12-01T07:41:06.238Z,101367.00
2022-12-01T07:43:34.044Z,101360.22
2022-12-01T07:46:10.015Z,101356.38
2022-12-01T07:48:38.815Z,101363.75
2022-12-01T07:51:07.553Z,101362.78
2022-12-01T07:53:35.310Z,101369.31
2022-12-01T07:56:08.619Z,101371.34
2022-12-01T07:58:36.821Z,101375.75
2022-12-01T08:01:12.767Z,101374.78
2022-12-01T08:03:41.383Z,101369.56
2022-12-01T08:06:09.616Z,101371.59
2022-12-01T08:08:39.087Z,101371.03
2022-12-01T08:11:10.310Z,101372.31
2022-12-01T08:13:39.036Z,101360.22
2022-12-01T08:16:08.108Z,101365.09
2022-12-01T08:18:36.340Z,101371.84
2022-12-01T08:21:04.664Z,101375.16
2022-12-01T08:23:31.998Z,101377.50
2022-12-01T08:26:04.885Z,101372.78
2022-12-01T08:28:32.471Z,101372.56
2022-12-01T08:30:59.830Z,101367.81
2022-12-01T08:33:29.249Z,101378.34
2022-12-01T08:35:56.529Z,101373.69
2022-12-01T08:38:23.770Z,101373.59
2022-12-01T08:40:51.213Z,101369.81
2022-12-01T08:43:49.458Z,101369.72
2022-12-01T08:46:06.266Z,101368.63
2022-12-01T08:48:34.171Z,101382.78
2022-12-01T08:51:21.705Z,101383.66
2022-12-01T08:53:50.176Z,101376.59
2022-12-01T08:56:22.236Z,101389.75
2022-12-01T08:58:51.114Z,101381.69
2022-12-01T09:01:19.544Z,101382.56
2022-12-01T09:03:47.364Z,101385.25
2022-12-01T09:06:23.228Z,101388.78
2022-12-01T09:08:50.393Z,101381.59
2022-12-01T09:11:19.189Z,101386.09
2022-12-01T09:13:52.969Z,101385.97
2022-12-01T09:16:22.127Z,101395.84
2022-12-01T09:18:49.551Z,101396.72
2022-12-01T09:21:24.368Z,101397.56
2022-12-01T09:23:52.381Z,101391.34
2022-12-01T09:26:20.239Z,101387.69
2022-12-01T09:28:49.664Z,101381.47
2022-12-01T09:31:18.487Z,101387.69
2022-12-01T09:33:46.403Z,101384.06
2022-12-01T09:36:13.737Z,101396.59
2022-12-01T09:38:41.170Z,101388.53
2022-12-01T09:41:21.642Z,101391.22
2022-12-01T09:44:02.325Z,101378.69
2022-12-01T09:46:37.001Z,101389.41
2022-12-01T09:49:08.594Z,101388.44
2022-12-01T09:51:36.934Z,101376.88
2022-12-01T09:54:04.509Z,101368.81
2022-12-01T09:56:43.382Z,101367.00
2022-12-01T09:59:24.655Z,101368.69
2022-12-01T10:02:01.979Z,101368.69
2022-12-01T10:04:41.441Z,101367.72
2022-12-01T10:07:23.127Z,101360.66
2022-12-01T10:09:57.933Z,101363.34
2022-12-01T10:12:29.714Z,101356.91
2022-12-01T10:15:13.071Z,101354.31
2022-12-01T10:18:09.737Z,101357.84
2022-12-01T10:20:45.854Z,101356.91
2022-12-01T10:23:21.646Z,101356.03
2022-12-01T10:26:09.959Z,101347.13
2022-12-01T10:28:52.845Z,101365.78
2022-12-01T10:31:43.791Z,101356.91
2022-12-01T10:34:22.439Z,101350.69
2022-12-01T10:36:50.432Z,101349.69
2022-12-01T10:39:40.107Z,101348.84
2022-12-01T10:42:13.649Z,101350.56
2022-12-01T10:44:41.382Z,101349.69
2022-12-01T10:47:20.648Z,101337.16
2022-12-01T10:49:48.995Z,101332.63
2022-12-01T10:52:33.873Z,101332.63
2022-12-01T10:55:02.807Z,101331.78
2022-12-01T10:57:31.384Z,101330.81
2022-12-01T11:00:09.295Z,101328.97
2022-12-01T11:02:38.132Z,101332.63
2022-12-01T11:05:26.645Z,101328.13
2022-12-01T11:07:54.814Z,101337.03
2022-12-01T11:10:28.982Z,101331.66
2022-12-01T11:13:15.158Z,101320.94
2022-12-01T11:15:51.569Z,101319.09
2022-12-01T11:18:27.996Z,101325.44
2022-12-01T11:21:27.865Z,101323.63
2022-12-01T11:23:56.383Z,101320.06
2022-12-01T11:26:30.733Z,101325.44
2022-12-01T11:29:27.360Z,101320.94
2022-12-01T11:31:55.162Z,101321.78
2022-12-01T11:34:24.727Z,101323.63
2022-12-01T11:36:56.122Z,101320.06
2022-12-01T11:39:38.403Z,101326.28
2022-12-01T11:42:17.282Z,101318.25
2022-12-01T11:44:57.157Z,101321.91
2022-12-01T11:47:26.981Z,101317.41
2022-12-01T11:50:02.809Z,101323.63
2022-12-01T11:52:36.631Z,101316.41
2022-12-01T11:55:13.229Z,101322.75
2022-12-01T11:57:44.563Z,101314.72
2022-12-01T12:00:16.116Z,101316.41
2022-12-01T12:03:08.927Z,101302.16
2022-12-01T12:05:38.840Z,101294.09
2022-12-01T12:08:43.434Z,101288.75
2022-12-01T12:11:49.403Z,101279.84
2022-12-01T12:14:32.228Z,101282.53
2022-12-01T12:17:02.585Z,101287.81
2022-12-01T12:20:07.136Z,101282.53
2022-12-01T12:23:19.659Z,101282.44
2022-12-01T12:26:25.342Z,101281.56
2022-12-01T12:28:55.739Z,101277.91
2022-12-01T12:31:35.092Z,101283.28
2022-12-01T12:34:16.208Z,101277.91
2022-12-01T12:37:18.980Z,101279.63
2022-12-01T12:40:05.084Z,101285.00
2022-12-01T12:42:46.664Z,101276.94
2022-12-01T12:45:38.290Z,101273.31
2022-12-01T12:48:23.860Z,101268.91
2022-12-01T12:51:15.166Z,101274.25
2022-12-01T12:53:54.917Z,101274.25
2022-12-01T12:56:26.184Z,101267.09
2022-12-01T12:58:56.649Z,101271.59
2022-12-01T13:01:34.532Z,101260.84
2022-12-01T13:04:15.331Z,101267.09
2022-12-01T13:06:45.448Z,101266.13
2022-12-01T13:09:13.281Z,101256.38
2022-12-01T13:12:09.261Z,101255.38
2022-12-01T13:14:41.036Z,101251.84
2022-12-01T13:17:36.342Z,101251.84
2022-12-01T13:20:05.697Z,101249.94
2022-12-01T13:22:35.225Z,101244.66
2022-12-01T13:25:03.794Z,101245.50
2022-12-01T13:27:36.075Z,101243.72
2022-12-01T13:30:04.259Z,101245.41
2022-12-01T13:32:40.537Z,101240.16
2022-12-01T13:35:27.075Z,101250.78
2022-12-01T13:38:20.536Z,101241.88
2022-12-01T13:40:50.075Z,101246.25
2022-12-01T13:43:22.175Z,101238.22
2022-12-01T13:45:50.241Z,101232.84
2022-12-01T13:48:30.029Z,101231.03
2022-12-01T13:50:57.376Z,101230.16
2022-12-01T13:53:35.115Z,101230.16
2022-12-01T13:59:02.972Z,101230.16
2022-12-01T14:01:31.563Z,101237.25
2022-12-01T14:04:11.112Z,101237.25
2022-12-01T14:06:50.353Z,101237.25
2022-12-01T14:09:24.222Z,101239.91
2022-12-01T14:12:01.363Z,101233.72
2022-12-01T14:14:34.781Z,101241.75
2022-12-01T14:17:03.417Z,101233.72
2022-12-01T14:19:53.592Z,101244.44
2022-12-01T14:22:38.169Z,101234.56
2022-12-01T14:25:27.347Z,101240.78
2022-12-01T14:28:00.183Z,101237.25
2022-12-01T14:30:39.855Z,101243.44
2022-12-01T14:33:47.934Z,101239.91
2022-12-01T14:36:24.501Z,101236.25
2022-12-01T14:39:03.737Z,101237.25
2022-12-01T14:41:43.313Z,101240.78
2022-12-01T14:44:36.428Z,101234.56
2022-12-01T14:47:08.601Z,101232.72
2022-12-01T14:50:11.839Z,101223.81
2022-12-01T14:52:43.637Z,101223.81
2022-12-01T14:55:37.572Z,101226.50
2022-12-01T14:58:18.473Z,101226.50
2022-12-01T15:01:08.687Z,101221.16
2022-12-01T15:03:42.956Z,101224.81
2022-12-01T15:06:15.750Z,101224.81
2022-12-01T15:08:58.343Z,101227.50
2022-12-01T15:11:31.040Z,101221.28
2022-12-01T15:13:58.416Z,101229.31
2022-12-01T15:16:29.242Z,101231.16
2022-12-01T15:18:56.643Z,101229.31
2022-12-01T15:21:29.924Z,101229.31
2022-12-01T15:24:05.532Z,101222.25
2022-12-01T15:26:36.233Z,101231.03
2022-12-01T15:29:15.774Z,101227.50
2022-12-01T15:32:05.375Z,101231.03
2022-12-01T15:34:40.184Z,101223.97
2022-12-01T15:37:13.712Z,101231.16
2022-12-01T15:39:48.779Z,101233.84
2022-12-01T15:42:24.418Z,101224.94
2022-12-01T15:45:03.179Z,101226.75
2022-12-01T15:47:43.724Z,101232.09
2022-12-01T15:50:39.748Z,101230.31
2022-12-01T15:53:24.233Z,101227.63
2022-12-01T15:55:58.612Z,101235.66
2022-12-01T15:58:30.426Z,101241.03
2022-12-01T16:01:13.952Z,101231.25
2022-12-01T16:03:52.422Z,101237.47
2022-12-01T16:06:22.155Z,101248.19
2022-12-01T16:08:56.253Z,101245.50
2022-12-01T16:11:23.878Z,101243.81
2022-12-01T16:14:22.837Z,101250.88
2022-12-01T16:16:51.922Z,101248.19
2022-12-01T16:19:19.143Z,101249.19
2022-12-01T16:21:51.185Z,101251.00
2022-12-01T16:24:32.623Z,101254.44
2022-12-01T16:27:06.891Z,101254.53
2022-12-01T16:29:50.306Z,101252.72
2022-12-01T16:32:23.176Z,101259.81
2022-12-01T16:34:54.501Z,101254.44
2022-12-01T16:37:22.851Z,101256.16
2022-12-01T16:39:50.522Z,101256.16
2022-12-01T16:42:23.568Z,101270.41
2022-12-01T16:44:51.883Z,101262.34
2022-12-01T16:47:25.401Z,101262.34
2022-12-01T16:49:53.333Z,101263.22
2022-12-01T16:55:30.348Z,101254.31
2022-12-01T16:57:57.857Z,101252.47
2022-12-01T17:00:25.768Z,101250.78
2022-12-01T17:02:53.103Z,101256.00
2022-12-01T17:05:20.381Z,101257.00
2022-12-01T17:07:47.781Z,101261.38
2022-12-01T17:10:16.078Z,101263.22
2022-12-01T17:12:43.452Z,101269.44
2022-12-01T17:15:18.109Z,101265.03
2022-12-01T17:17:45.608Z,101266.75
2022-12-01T17:20:13.731Z,101270.28
2022-12-01T17:22:41.266Z,101272.09
2022-12-01T17:25:09.765Z,101271.25
2022-12-01T17:39:50.577Z,101279.06
2022-12-01T17:42:18.232Z,101283.34
2022-12-01T17:44:45.579Z,101289.56
2022-12-01T17:47:13.732Z,101291.28
2022-12-01T17:49:41.034Z,101290.44
2022-12-01T17:52:08.484Z,101297.50
2022-12-01T17:54:35.905Z,101295.78
2022-12-01T17:57:03.296Z,101298.47
2022-12-01T17:59:30.560Z,101299.44
2022-12-01T18:01:57.895Z,101299.31
2022-12-01T18:04:25.258Z,101294.06
2022-12-01T18:06:54.592Z,101298.47
2022-12-01T18:09:22.415Z,101297.50
2022-12-01T18:11:49.958Z,101297.50
2022-12-01T18:14:20.228Z,101300.91
2022-12-01T18:16:48.717Z,101300.06
2022-12-01T18:19:16.211Z,101314.22
2022-12-01T18:21:43.633Z,101300.81
2022-12-01T18:24:11.347Z,101300.81
2022-12-01T18:26:40.462Z,101301.53
2022-12-01T18:29:26.242Z,101302.38
2022-12-01T18:31:58.554Z,101304.22
2022-12-01T18:34:29.396Z,101290.69
2022-12-01T18:36:56.988Z,101290.69
2022-12-01T18:39:24.416Z,101301.28
2022-12-01T18:41:51.780Z,101302.16
2022-12-01T18:44:21.129Z,101305.59
2022-12-01T18:46:48.563Z,101305.59
2022-12-01T18:49:16.326Z,101301.91
2022-12-01T18:51:43.626Z,101303.63
2022-12-01T18:54:14.238Z,101306.22
2022-12-01T18:56:41.946Z,101305.34
2022-12-01T18:59:11.668Z,101315.09
2022-12-01T19:01:43.940Z,101308.75
2022-12-01T19:04:13.680Z,101317.66
2022-12-01T19:06:48.579Z,101315.84
2022-12-01T19:09:16.753Z,101317.56
2022-12-01T19:11:44.494Z,101320.25
2022-12-01T19:14:15.902Z,101315.72
2022-12-01T19:16:43.901Z,101309.38
2022-12-01T19:19:11.314Z,101318.28
2022-12-01T19:21:38.548Z,101320.97
2022-12-01T19:24:06.260Z,101327.19
2022-12-01T19:26:33.580Z,101320.00
2022-12-01T19:29:00.872Z,101319.88
2022-12-01T19:31:28.227Z,101324.41
2022-12-01T19:33:55.702Z,101324.28
2022-12-01T19:36:28.116Z,101330.50
2022-12-01T19:39:00.596Z,101327.81
2022-12-01T19:41:30.055Z,101324.16
2022-12-01T19:43:58.045Z,101330.38
2022-12-01T19:46:27.690Z,101326.72
2022-12-01T19:48:57.283Z,101332.09
2022-12-01T19:51:27.307Z,101330.28
2022-12-01T19:53:55.003Z,101323.06
2022-12-01T19:56:23.363Z,101335.41
2022-12-01T19:58:51.396Z,101335.41
2022-12-01T20:01:19.951Z,101336.25
2022-12-01T20:03:52.316Z,101336.25
2022-12-01T20:06:30.993Z,101343.31
2022-12-01T20:09:01.636Z,101346.88
2022-12-01T20:11:29.917Z,101346.88
2022-12-01T20:13:57.259Z,101352.22
2022-12-01T20:16:26.302Z,101347.72
2022-12-01T20:18:54.854Z,101350.31
2022-12-01T20:21:25.986Z,101350.31
2022-12-01T20:23:58.735Z,101359.06
2022-12-01T20:26:34.945Z,101355.53
2022-12-01T20:29:06.456Z,101359.06
2022-12-01T20:31:34.768Z,101359.06
2022-12-01T20:34:05.286Z,101359.91
2022-12-01T20:36:32.693Z,101358.09
2022-12-01T20:39:00.196Z,101355.41
2022-12-01T20:41:27.554Z,101356.25
2022-12-01T20:43:56.359Z,101352.72
2022-12-01T20:46:23.829Z,101354.47
2022-12-01T20:48:51.916Z,101351.78
2022-12-01T20:51:19.580Z,101355.31
2022-12-01T20:54:05.509Z,101355.31
2022-12-01T20:56:34.770Z,101357.00
2022-12-01T20:59:02.068Z,101357.88
2022-12-01T21:01:29.509Z,101353.25
2022-12-01T21:03:56.894Z,101349.56
2022-12-01T21:06:24.345Z,101354.09
2022-12-01T21:08:51.970Z,101349.56
2022-12-01T21:11:45.497Z,101345.06
2022-12-01T21:14:22.128Z,101350.44
2022-12-01T21:16:55.227Z,101358.34
2022-12-01T21:19:45.456Z,101352.97
2022-12-01T21:22:13.380Z,101344.06
2022-12-01T21:24:43.727Z,101344.94
2022-12-01T21:27:16.835Z,101352.03
2022-12-01T21:29:47.548Z,101345.78
2022-12-01T21:32:33.312Z,101347.53
2022-12-01T21:35:14.526Z,101343.97
2022-12-01T21:37:44.359Z,101348.38
2022-12-01T21:40:20.563Z,101352.75
2022-12-01T21:42:48.330Z,101355.44
2022-12-01T21:45:26.057Z,101356.28
2022-12-01T21:47:57.413Z,101361.56
2022-12-01T21:50:25.596Z,101353.50
2022-12-01T21:52:53.251Z,101356.19
2022-12-01T21:55:20.505Z,101362.28
2022-12-01T21:57:52.589Z,101362.28
2022-12-01T22:00:23.327Z,101361.56
2022-12-01T22:03:08.487Z,101355.41
2022-12-01T22:05:35.681Z,101356.97
2022-12-01T22:08:12.110Z,101356.75
2022-12-01T22:11:22.487Z,101358.22
2022-12-01T22:13:49.711Z,101362.50
2022-12-01T22:16:29.700Z,101367.63
2022-12-01T22:18:59.681Z,101363.97
2022-12-01T22:21:36.693Z,101374.47
2022-12-01T22:24:15.461Z,101374.47
2022-12-01T22:27:13.297Z,101381.56
2022-12-01T22:29:45.535Z,101374.22
2022-12-01T22:32:12.723Z,101378.63
2022-12-01T22:34:44.806Z,101377.66
2022-12-01T22:37:26.376Z,101381.22
2022-12-01T22:39:55.723Z,101385.47
2022-12-01T22:42:34.778Z,101377.41
2022-12-01T22:45:27.967Z,101382.69
2022-12-01T22:48:00.465Z,101386.22
2022-12-01T22:50:30.593Z,101378.88
2022-12-01T22:53:14.930Z,101387.78
2022-12-01T22:55:42.617Z,101393.06
2022-12-01T22:58:22.540Z,101390.38
2022-12-01T23:00:52.646Z,101388.53
2022-12-01T23:03:19.998Z,101386.69
2022-12-01T23:05:53.428Z,101392.06
2022-12-01T23:08:22.783Z,101393.78
2022-12-01T23:10:50.929Z,101393.69
2022-12-01T23:13:23.970Z,101387.47
2022-12-01T23:15:53.599Z,101396.38
2022-12-01T23:18:22.300Z,101386.47
2022-12-01T23:20:55.148Z,101384.78
2022-12-01T23:23:30.547Z,101382.81
2022-12-01T23:25:59.021Z,101386.47
2022-12-01T23:28:26.475Z,101381.97
2022-12-01T23:30:56.903Z,101380.13
2022-12-01T23:33:34.526Z,101376.59
2022-12-01T23:36:01.727Z,101376.44
2022-12-01T23:38:38.273Z,101379.28
2022-12-01T23:41:10.238Z,101376.59
2022-12-01T23:43:44.348Z,101380.13
2022-12-01T23:46:15.384Z,101373.06
2022-12-01T23:48:46.967Z,101378.41
2022-12-01T23:51:37.948Z,101377.56
2022-12-01T23:54:13.421Z,101381.97
2022-12-01T23:56:40.809Z,101367.78
2022-12-01T23:59:13.556Z,101367.78
